sensor_id;sensor_type;location;lat;lon;timestamp;pressure;altitude;pressure_sealevel;temperature;humidity
46199;BME280;31928;52.104;10.030;2023-07-28T00:00:38;99326.19;;;21.76;62.36
46199;BME280;31928;52.104;10.030;2023-07-28T00:03:05;99321.19;;;21.78;62.37
46199;BME280;31928;52.104;10.030;2023-07-28T00:05:32;99328.59;;;21.78;62.37
46199;BME280;31928;52.104;10.030;2023-07-28T00:07:58;99333.72;;;21.79;62.41
46199;BME280;31928;52.104;10.030;2023-07-28T00:10:25;99326.66;;;21.78;62.24
46199;BME280;31928;52.104;10.030;2023-07-28T00:12:52;99329.88;;;21.80;62.04
46199;BME280;31928;52.104;10.030;2023-07-28T00:15:19;99331.00;;;21.79;62.15
46199;BME280;31928;52.104;10.030;2023-07-28T00:17:45;99333.72;;;21.79;62.37
46199;BME280;31928;52.104;10.030;2023-07-28T00:20:12;99331.00;;;21.79;62.17
46199;BME280;31928;52.104;10.030;2023-07-28T00:22:39;99333.72;;;21.79;62.37
46199;BME280;31928;52.104;10.030;2023-07-28T00:25:06;99335.34;;;21.80;62.43
46199;BME280;31928;52.104;10.030;2023-07-28T00:27:32;99333.72;;;21.79;62.24
46199;BME280;31928;52.104;10.030;2023-07-28T00:29:59;99327.63;;;21.82;61.88
46199;BME280;31928;52.104;10.030;2023-07-28T00:32:26;99332.31;;;21.82;61.90
46199;BME280;31928;52.104;10.030;2023-07-28T00:34:53;99336.34;;;21.84;62.10
46199;BME280;31928;52.104;10.030;2023-07-28T00:37:19;99330.09;;;21.84;62.22
46199;BME280;31928;52.104;10.030;2023-07-28T00:39:46;99330.09;;;21.84;61.98
46199;BME280;31928;52.104;10.030;2023-07-28T00:42:13;99330.88;;;21.84;62.20
46199;BME280;31928;52.104;10.030;2023-07-28T00:44:40;99325.41;;;21.84;62.27
46199;BME280;31928;52.104;10.030;2023-07-28T00:47:06;99330.88;;;21.84;62.54
46199;BME280;31928;52.104;10.030;2023-07-28T00:49:33;99329.78;;;21.85;62.30
46199;BME280;31928;52.104;10.030;2023-07-28T00:52:00;99328.94;;;21.85;62.47
46199;BME280;31928;52.104;10.030;2023-07-28T00:54:27;99334.13;;;21.86;62.21
46199;BME280;31928;52.104;10.030;2023-07-28T00:56:55;99342.59;;;21.85;62.20
46199;BME280;31928;52.104;10.030;2023-07-28T00:59:22;99332.50;;;21.85;62.25
46199;BME280;31928;52.104;10.030;2023-07-28T01:01:49;99328.94;;;21.85;62.64
46199;BME280;31928;52.104;10.030;2023-07-28T01:04:15;99330.88;;;21.84;62.52
46199;BME280;31928;52.104;10.030;2023-07-28T01:06:59;99329.81;;;21.94;62.01
46199;BME280;31928;52.104;10.030;2023-07-28T01:09:39;99335.91;;;21.91;62.33
46199;BME280;31928;52.104;10.030;2023-07-28T01:12:09;99326.06;;;21.81;62.88
46199;BME280;31928;52.104;10.030;2023-07-28T01:14:36;99326.53;;;21.83;62.87
46199;BME280;31928;52.104;10.030;2023-07-28T01:17:03;99325.22;;;21.81;62.81
46199;BME280;31928;52.104;10.030;2023-07-28T01:19:30;99318.97;;;21.80;62.76
46199;BME280;31928;52.104;10.030;2023-07-28T01:24:55;99314.69;;;22.18;60.86
46199;BME280;31928;52.104;10.030;2023-07-28T01:27:20;99317.75;;;21.86;62.35
46199;BME280;31928;52.104;10.030;2023-07-28T01:29:48;99314.81;;;21.83;62.80
46199;BME280;31928;52.104;10.030;2023-07-28T01:32:14;99313.50;;;21.80;62.65
46199;BME280;31928;52.104;10.030;2023-07-28T01:34:42;99314.63;;;21.79;62.49
46199;BME280;31928;52.104;10.030;2023-07-28T01:37:08;99307.56;;;21.78;62.71
46199;BME280;31928;52.104;10.030;2023-07-28T01:39:35;99304.53;;;21.80;62.61
46199;BME280;31928;52.104;10.030;2023-07-28T01:42:02;99310.00;;;21.80;62.82
46199;BME280;31928;52.104;10.030;2023-07-28T01:44:28;99310.28;;;21.78;62.53
46199;BME280;31928;52.104;10.030;2023-07-28T01:46:55;99310.28;;;21.78;62.60
46199;BME280;31928;52.104;10.030;2023-07-28T01:49:22;99311.09;;;21.79;62.66
46199;BME280;31928;52.104;10.030;2023-07-28T01:51:48;99309.16;;;21.79;62.33
46199;BME280;31928;52.104;10.030;2023-07-28T01:54:15;99302.59;;;21.80;62.29
46199;BME280;31928;52.104;10.030;2023-07-28T01:56:42;99306.44;;;21.79;62.46
46199;BME280;31928;52.104;10.030;2023-07-28T01:59:08;99303.22;;;21.77;62.79
46199;BME280;31928;52.104;10.030;2023-07-28T02:01:35;99304.53;;;21.80;62.54
46199;BME280;31928;52.104;10.030;2023-07-28T02:04:02;99308.06;;;21.80;62.66
46199;BME280;31928;52.104;10.030;2023-07-28T02:06:29;99316.25;;;21.80;62.37
46199;BME280;31928;52.104;10.030;2023-07-28T02:08:55;99309.16;;;21.79;62.86
46199;BME280;31928;52.104;10.030;2023-07-28T02:11:22;99302.41;;;21.77;62.55
46199;BME280;31928;52.104;10.030;2023-07-28T02:13:49;99302.09;;;21.78;62.36
46199;BME280;31928;52.104;10.030;2023-07-28T02:16:16;99299.38;;;21.78;62.64
46199;BME280;31928;52.104;10.030;2023-07-28T02:18:43;99304.81;;;21.78;62.15
46199;BME280;31928;52.104;10.030;2023-07-28T02:21:10;99306.75;;;21.78;62.46
46199;BME280;31928;52.104;10.030;2023-07-28T02:23:36;99310.78;;;21.80;62.24
46199;BME280;31928;52.104;10.030;2023-07-28T02:26:03;99314.63;;;21.79;62.03
46199;BME280;31928;52.104;10.030;2023-07-28T02:28:30;99319.78;;;21.81;62.33
46199;BME280;31928;52.104;10.030;2023-07-28T02:30:56;99323.31;;;21.81;62.04
46199;BME280;31928;52.104;10.030;2023-07-28T02:33:23;99320.59;;;21.81;62.52
46199;BME280;31928;52.104;10.030;2023-07-28T02:35:50;99322.19;;;21.82;62.51
46199;BME280;31928;52.104;10.030;2023-07-28T02:38:17;99322.19;;;21.82;62.50
46199;BME280;31928;52.104;10.030;2023-07-28T02:40:43;99329.25;;;21.83;62.42
46199;BME280;31928;52.104;10.030;2023-07-28T02:43:10;99327.34;;;21.84;62.32
46199;BME280;31928;52.104;10.030;2023-07-28T02:45:37;99328.16;;;21.84;62.43
46199;BME280;31928;52.104;10.030;2023-07-28T02:48:03;99329.25;;;21.83;62.34
46199;BME280;31928;52.104;10.030;2023-07-28T02:50:30;99337.13;;;21.85;62.36
46199;BME280;31928;52.104;10.030;2023-07-28T02:52:57;99332.50;;;21.85;62.19
46199;BME280;31928;52.104;10.030;2023-07-28T02:55:23;99344.53;;;21.84;62.47
46199;BME280;31928;52.104;10.030;2023-07-28T02:57:50;99348.03;;;21.85;62.12
46199;BME280;31928;52.104;10.030;2023-07-28T03:00:17;99347.25;;;21.84;62.10
46199;BME280;31928;52.104;10.030;2023-07-28T03:02:43;99347.25;;;21.84;62.09
46199;BME280;31928;52.104;10.030;2023-07-28T03:05:10;99355.44;;;21.84;62.35
46199;BME280;31928;52.104;10.030;2023-07-28T03:07:37;99347.25;;;21.84;62.50
46199;BME280;31928;52.104;10.030;2023-07-28T03:10:04;99346.75;;;21.82;62.29
46199;BME280;31928;52.104;10.030;2023-07-28T03:12:31;99340.19;;;21.83;62.28
46199;BME280;31928;52.104;10.030;2023-07-28T03:14:58;99338.56;;;21.82;62.36
46199;BME280;31928;52.104;10.030;2023-07-28T03:17:24;99345.63;;;21.83;62.38
46199;BME280;31928;52.104;10.030;2023-07-28T03:19:51;99345.63;;;21.83;62.15
46199;BME280;31928;52.104;10.030;2023-07-28T03:22:18;99358.28;;;21.79;62.16
46199;BME280;31928;52.104;10.030;2023-07-28T03:24:44;99344.84;;;21.83;62.34
46199;BME280;31928;52.104;10.030;2023-07-28T03:27:12;99355.75;;;21.83;61.97
46199;BME280;31928;52.104;10.030;2023-07-28T03:29:39;99361.22;;;21.83;62.14
46199;BME280;31928;52.104;10.030;2023-07-28T03:32:06;99366.34;;;21.84;61.94
46199;BME280;31928;52.104;10.030;2023-07-28T03:34:35;99356.53;;;21.83;61.90
46199;BME280;31928;52.104;10.030;2023-07-28T03:37:02;99367.47;;;21.83;62.13
46199;BME280;31928;52.104;10.030;2023-07-28T03:39:29;99372.59;;;21.85;62.21
46199;BME280;31928;52.104;10.030;2023-07-28T03:41:57;99365.84;;;21.82;61.89
46199;BME280;31928;52.104;10.030;2023-07-28T03:44:24;99364.72;;;21.83;61.96
46199;BME280;31928;52.104;10.030;2023-07-28T03:46:51;99352.50;;;21.81;62.26
46199;BME280;31928;52.104;10.030;2023-07-28T03:49:17;99360.22;;;21.79;61.94
46199;BME280;31928;52.104;10.030;2023-07-28T03:51:44;99362.63;;;21.80;62.02
46199;BME280;31928;52.104;10.030;2023-07-28T03:54:11;99360.22;;;21.79;61.75
46199;BME280;31928;52.104;10.030;2023-07-28T03:56:37;99362.63;;;21.80;61.77
46199;BME280;31928;52.104;10.030;2023-07-28T03:59:04;99370.31;;;21.78;62.16
46199;BME280;31928;52.104;10.030;2023-07-28T04:01:32;99367.31;;;21.80;62.05
46199;BME280;31928;52.104;10.030;2023-07-28T04:03:58;99373.56;;;21.80;62.21
46199;BME280;31928;52.104;10.030;2023-07-28T04:06:43;99364.63;;;21.88;61.49
46199;BME280;31928;52.104;10.030;2023-07-28T04:09:13;99372.91;;;21.83;62.07
46199;BME280;31928;52.104;10.030;2023-07-28T04:11:41;99380.31;;;21.83;61.68
46199;BME280;31928;52.104;10.030;2023-07-28T04:14:08;99367.47;;;21.83;62.01
46199;BME280;31928;52.104;10.030;2023-07-28T04:16:35;99364.41;;;21.85;61.62
46199;BME280;31928;52.104;10.030;2023-07-28T04:19:02;99364.41;;;21.85;62.09
46199;BME280;31928;52.104;10.030;2023-07-28T04:21:29;99359.78;;;21.85;61.55
46199;BME280;31928;52.104;10.030;2023-07-28T04:23:56;99373.13;;;21.87;61.59
46199;BME280;31928;52.104;10.030;2023-07-28T04:26:25;99368.66;;;21.91;61.90
46199;BME280;31928;52.104;10.030;2023-07-28T04:28:52;99371.69;;;21.89;61.69
46199;BME280;31928;52.104;10.030;2023-07-28T04:31:19;99368.97;;;21.89;61.77
46199;BME280;31928;52.104;10.030;2023-07-28T04:33:45;99378.78;;;21.90;61.77
46199;BME280;31928;52.104;10.030;2023-07-28T04:36:12;99372.69;;;21.93;61.92
46199;BME280;31928;52.104;10.030;2023-07-28T04:38:39;99368.84;;;21.94;61.60
46199;BME280;31928;52.104;10.030;2023-07-28T04:41:05;99370.47;;;21.95;61.37
46199;BME280;31928;52.104;10.030;2023-07-28T04:43:32;99373.69;;;21.97;61.36
46199;BME280;31928;52.104;10.030;2023-07-28T04:45:59;99372.88;;;21.97;61.57
46199;BME280;31928;52.104;10.030;2023-07-28T04:48:26;99379.13;;;21.97;61.34
46199;BME280;31928;52.104;10.030;2023-07-28T04:50:53;99383.97;;;22.00;61.61
46199;BME280;31928;52.104;10.030;2023-07-28T04:53:20;99386.41;;;22.02;61.48
46199;BME280;31928;52.104;10.030;2023-07-28T04:55:47;99388.81;;;22.03;61.59
46199;BME280;31928;52.104;10.030;2023-07-28T04:58:14;99385.28;;;22.03;61.61
46199;BME280;31928;52.104;10.030;2023-07-28T05:00:40;99398.59;;;22.04;61.55
46199;BME280;31928;52.104;10.030;2023-07-28T05:03:07;99408.41;;;22.05;61.44
46199;BME280;31928;52.104;10.030;2023-07-28T05:05:34;99408.41;;;22.05;61.25
46199;BME280;31928;52.104;10.030;2023-07-28T05:08:00;99400.22;;;22.05;61.22
46199;BME280;31928;52.104;10.030;2023-07-28T05:10:27;99405.19;;;22.03;61.51
46199;BME280;31928;52.104;10.030;2023-07-28T05:12:54;99404.88;;;22.05;61.14
46199;BME280;31928;52.104;10.030;2023-07-28T05:15:20;99402.94;;;22.05;60.89
46199;BME280;31928;52.104;10.030;2023-07-28T05:17:47;99406.78;;;22.04;61.37
46199;BME280;31928;52.104;10.030;2023-07-28T05:20:14;99408.41;;;22.05;61.16
46199;BME280;31928;52.104;10.030;2023-07-28T05:22:40;99414.69;;;22.06;61.03
46199;BME280;31928;52.104;10.030;2023-07-28T05:25:07;99416.13;;;22.03;60.94
46199;BME280;31928;52.104;10.030;2023-07-28T05:27:34;99413.88;;;22.05;61.02
46199;BME280;31928;52.104;10.030;2023-07-28T05:30:01;99416.13;;;22.03;61.27
46199;BME280;31928;52.104;10.030;2023-07-28T05:32:27;99419.34;;;22.05;61.38
46199;BME280;31928;52.104;10.030;2023-07-28T05:34:54;99424.31;;;22.03;61.28
46199;BME280;31928;52.104;10.030;2023-07-28T05:37:21;99423.16;;;22.04;61.71
46199;BME280;31928;52.104;10.030;2023-07-28T05:39:47;99431.38;;;22.04;61.55
46199;BME280;31928;52.104;10.030;2023-07-28T05:42:14;99427.84;;;22.04;61.54
46199;BME280;31928;52.104;10.030;2023-07-28T05:44:41;99434.09;;;22.04;61.72
46199;BME280;31928;52.104;10.030;2023-07-28T05:47:07;99431.38;;;22.04;61.47
46199;BME280;31928;52.104;10.030;2023-07-28T05:49:34;99437.13;;;22.03;61.24
46199;BME280;31928;52.104;10.030;2023-07-28T05:52:01;99439.06;;;22.02;61.21
46199;BME280;31928;52.104;10.030;2023-07-28T05:54:27;99438.44;;;22.05;61.47
46199;BME280;31928;52.104;10.030;2023-07-28T05:56:54;99439.56;;;22.04;61.23
46199;BME280;31928;52.104;10.030;2023-07-28T05:59:21;99449.06;;;22.07;61.26
46199;BME280;31928;52.104;10.030;2023-07-28T06:01:48;99440.56;;;22.08;61.20
46199;BME280;31928;52.104;10.030;2023-07-28T06:04:14;99438.97;;;22.07;61.24
46199;BME280;31928;52.104;10.030;2023-07-28T06:06:41;99441.06;;;22.10;61.23
46199;BME280;31928;52.104;10.030;2023-07-28T06:09:08;99442.16;;;22.09;61.60
46199;BME280;31928;52.104;10.030;2023-07-28T06:11:34;99455.22;;;22.12;61.55
46199;BME280;31928;52.104;10.030;2023-07-28T06:14:02;99454.91;;;22.14;61.51
46199;BME280;31928;52.104;10.030;2023-07-28T06:16:28;99453.47;;;22.16;61.57
46199;BME280;31928;52.104;10.030;2023-07-28T06:18:55;99445.78;;;22.18;61.43
46199;BME280;31928;52.104;10.030;2023-07-28T06:21:22;99449.81;;;22.21;60.85
46199;BME280;31928;52.104;10.030;2023-07-28T06:23:48;99455.47;;;22.24;60.65
46199;BME280;31928;52.104;10.030;2023-07-28T06:26:15;99452.44;;;22.26;60.90
46199;BME280;31928;52.104;10.030;2023-07-28T06:28:42;99457.59;;;22.27;60.69
46199;BME280;31928;52.104;10.030;2023-07-28T06:31:08;99455.38;;;22.29;60.48
46199;BME280;31928;52.104;10.030;2023-07-28T06:33:36;99457.97;;;22.34;60.55
46199;BME280;31928;52.104;10.030;2023-07-28T06:36:04;99454.63;;;22.37;60.71
46199;BME280;31928;52.104;10.030;2023-07-28T06:38:30;99453.19;;;22.39;60.88
46199;BME280;31928;52.104;10.030;2023-07-28T06:40:57;99447.94;;;22.43;60.65
46199;BME280;31928;52.104;10.030;2023-07-28T06:43:24;99453.88;;;22.45;60.41
46199;BME280;31928;52.104;10.030;2023-07-28T06:45:51;99461.44;;;22.48;60.22
46199;BME280;31928;52.104;10.030;2023-07-28T06:48:18;99464.66;;;22.50;60.33
46199;BME280;31928;52.104;10.030;2023-07-28T06:50:45;99466.78;;;22.53;60.27
46199;BME280;31928;52.104;10.030;2023-07-28T06:53:12;99465.19;;;22.52;60.40
46199;BME280;31928;52.104;10.030;2023-07-28T06:55:38;99474.38;;;22.56;59.80
46199;BME280;31928;52.104;10.030;2023-07-28T06:58:05;99475.94;;;22.57;59.87
46199;BME280;31928;52.104;10.030;2023-07-28T07:00:33;99478.09;;;22.60;60.02
46199;BME280;31928;52.104;10.030;2023-07-28T07:03:00;99476.47;;;22.59;59.52
46199;BME280;31928;52.104;10.030;2023-07-28T07:05:27;99493.38;;;22.61;59.50
46199;BME280;31928;52.104;10.030;2023-07-28T07:07:53;99503.66;;;22.64;59.52
46199;BME280;31928;52.104;10.030;2023-07-28T07:10:21;99488.88;;;22.65;59.75
46199;BME280;31928;52.104;10.030;2023-07-28T07:12:47;99498.19;;;22.64;59.67
46199;BME280;31928;52.104;10.030;2023-07-28T07:15:14;99507.69;;;22.66;59.73
46199;BME280;31928;52.104;10.030;2023-07-28T07:17:42;99510.13;;;22.68;59.38
46199;BME280;31928;52.104;10.030;2023-07-28T07:20:09;99518.81;;;22.70;59.34
46199;BME280;31928;52.104;10.030;2023-07-28T07:22:37;99510.31;;;22.71;59.58
46199;BME280;31928;52.104;10.030;2023-07-28T07:25:04;99519.81;;;22.74;59.25
46199;BME280;31928;52.104;10.030;2023-07-28T07:27:31;99520.28;;;22.76;59.24
46199;BME280;31928;52.104;10.030;2023-07-28T07:29:58;99523.84;;;22.76;59.41
46199;BME280;31928;52.104;10.030;2023-07-28T07:32:24;99518.53;;;22.80;59.22
46199;BME280;31928;52.104;10.030;2023-07-28T07:34:51;99526.75;;;22.80;58.61
46199;BME280;31928;52.104;10.030;2023-07-28T07:37:19;99520.34;;;22.84;59.18
46199;BME280;31928;52.104;10.030;2023-07-28T07:39:46;99521.16;;;22.85;59.27
46199;BME280;31928;52.104;10.030;2023-07-28T07:42:13;99520.50;;;22.88;59.03
46199;BME280;31928;52.104;10.030;2023-07-28T07:44:40;99528.44;;;22.89;58.83
46199;BME280;31928;52.104;10.030;2023-07-28T07:47:15;99542.75;;;22.95;58.52
46199;BME280;31928;52.104;10.030;2023-07-28T07:49:42;99533.94;;;22.97;58.87
46199;BME280;31928;52.104;10.030;2023-07-28T07:52:10;99536.06;;;23.00;58.52
46199;BME280;31928;52.104;10.030;2023-07-28T07:54:37;99537.22;;;23.08;58.71
46199;BME280;31928;52.104;10.030;2023-07-28T07:57:04;99544.50;;;23.12;57.75
46199;BME280;31928;52.104;10.030;2023-07-28T07:59:31;99539.38;;;23.19;58.18
46199;BME280;31928;52.104;10.030;2023-07-28T08:02:02;99544.25;;;23.22;57.66
46199;BME280;31928;52.104;10.030;2023-07-28T08:04:30;99539.91;;;23.30;58.10
46199;BME280;31928;52.104;10.030;2023-07-28T08:06:58;99543.34;;;23.35;58.14
46199;BME280;31928;52.104;10.030;2023-07-28T08:09:25;99545.63;;;23.42;57.83
46199;BME280;31928;52.104;10.030;2023-07-28T08:11:52;99549.47;;;23.49;57.79
46199;BME280;31928;52.104;10.030;2023-07-28T08:14:19;99540.34;;;23.54;57.88
46199;BME280;31928;52.104;10.030;2023-07-28T08:16:46;99546.47;;;23.59;57.36
46199;BME280;31928;52.104;10.030;2023-07-28T08:19:13;99539.09;;;23.68;57.00
46199;BME280;31928;52.104;10.030;2023-07-28T08:21:39;99553.31;;;23.78;56.61
46199;BME280;31928;52.104;10.030;2023-07-28T08:24:07;99561.06;;;23.85;56.20
46199;BME280;31928;52.104;10.030;2023-07-28T08:26:34;99549.69;;;24.00;56.58
46199;BME280;31928;52.104;10.030;2023-07-28T08:29:00;99543.25;;;24.13;56.49
46199;BME280;31928;52.104;10.030;2023-07-28T08:31:27;99551.63;;;24.24;56.09
46199;BME280;31928;52.104;10.030;2023-07-28T08:33:54;99546.84;;;24.38;55.67
46199;BME280;31928;52.104;10.030;2023-07-28T08:36:21;99558.78;;;24.51;54.16
46199;BME280;31928;52.104;10.030;2023-07-28T08:38:47;99557.97;;;24.59;53.79
46199;BME280;31928;52.104;10.030;2023-07-28T08:41:15;99557.47;;;24.65;53.39
46199;BME280;31928;52.104;10.030;2023-07-28T08:43:42;99548.75;;;24.72;53.73
46199;BME280;31928;52.104;10.030;2023-07-28T08:46:09;99563.09;;;24.77;53.41
46199;BME280;31928;52.104;10.030;2023-07-28T08:48:36;99568.41;;;24.82;53.18
46199;BME280;31928;52.104;10.030;2023-07-28T08:51:03;99561.47;;;24.84;52.63
46199;BME280;31928;52.104;10.030;2023-07-28T08:53:31;99562.44;;;24.88;52.68
46199;BME280;31928;52.104;10.030;2023-07-28T08:55:57;99548.88;;;24.92;52.83
46199;BME280;31928;52.104;10.030;2023-07-28T08:58:24;99570.50;;;24.93;52.62
46199;BME280;31928;52.104;10.030;2023-07-28T09:00:52;99564.03;;;24.98;53.19
46199;BME280;31928;52.104;10.030;2023-07-28T09:03:19;99569.88;;;25.05;52.49
46199;BME280;31928;52.104;10.030;2023-07-28T09:05:47;99570.50;;;25.10;52.64
46199;BME280;31928;52.104;10.030;2023-07-28T09:08:15;99566.91;;;25.18;53.46
46199;BME280;31928;52.104;10.030;2023-07-28T09:10:47;99554.94;;;25.31;53.02
46199;BME280;31928;52.104;10.030;2023-07-28T09:13:18;99564.28;;;25.39;52.72
46199;BME280;31928;52.104;10.030;2023-07-28T09:15:45;99566.66;;;25.48;51.76
46199;BME280;31928;52.104;10.030;2023-07-28T09:18:16;99569.50;;;25.60;51.34
46199;BME280;31928;52.104;10.030;2023-07-28T09:20:43;99579.19;;;25.66;50.67
46199;BME280;31928;52.104;10.030;2023-07-28T09:23:14;99586.13;;;25.72;50.06
46199;BME280;31928;52.104;10.030;2023-07-28T09:25:42;99568.81;;;25.80;49.49
46199;BME280;31928;52.104;10.030;2023-07-28T09:28:09;99577.81;;;25.89;50.00
46199;BME280;31928;52.104;10.030;2023-07-28T09:30:49;99590.97;;;26.04;50.70
46199;BME280;31928;52.104;10.030;2023-07-28T09:33:30;99579.59;;;26.14;50.49
46199;BME280;31928;52.104;10.030;2023-07-28T09:36:07;99579.22;;;26.24;50.86
46199;BME280;31928;52.104;10.030;2023-07-28T09:38:36;99575.19;;;26.21;49.03
46199;BME280;31928;52.104;10.030;2023-07-28T09:41:04;99580.25;;;26.31;49.67
46199;BME280;31928;52.104;10.030;2023-07-28T09:43:36;99572.00;;;26.40;49.17
46199;BME280;31928;52.104;10.030;2023-07-28T09:46:06;99580.84;;;26.45;49.58
46199;BME280;31928;52.104;10.030;2023-07-28T09:48:34;99585.81;;;26.52;49.00
46199;BME280;31928;52.104;10.030;2023-07-28T09:51:06;99598.03;;;26.63;48.94
46199;BME280;31928;52.104;10.030;2023-07-28T09:53:41;99596.00;;;26.71;48.94
46199;BME280;31928;52.104;10.030;2023-07-28T09:56:13;99597.63;;;26.72;47.90
46199;BME280;31928;52.104;10.030;2023-07-28T09:58:41;99597.63;;;26.72;48.26
46199;BME280;31928;52.104;10.030;2023-07-28T10:01:11;99599.69;;;26.75;48.31
